createdAt,value
2019-04-22T00:00:10.757Z,0.00
2019-04-22T00:01:13.781Z,0.00
2019-04-22T00:02:38.967Z,0.00
2019-04-22T00:03:37.738Z,0.00
2019-04-22T00:04:15.532Z,0.00
2019-04-22T00:05:18.876Z,0.00
2019-04-22T00:06:30.815Z,0.00
2019-04-22T00:07:56.325Z,0.00
2019-04-22T00:08:56.134Z,0.00
2019-04-22T00:09:41.893Z,0.00
2019-04-22T00:10:39.515Z,0.00
2019-04-22T00:13:10.952Z,0.00
2019-04-22T00:13:57.042Z,0.00
2019-04-22T00:14:28.352Z,0.00
2019-04-22T00:15:29.469Z,0.00
2019-04-22T00:16:38.830Z,0.00
2019-04-22T00:18:03.772Z,0.00
2019-04-22T00:19:11.449Z,0.00
2019-04-22T00:19:38.924Z,0.00
2019-04-22T00:20:35.417Z,0.00
2019-04-22T00:22:51.859Z,0.00
2019-04-22T00:23:59.570Z,0.00
2019-04-22T00:24:38.778Z,0.00
2019-04-22T00:25:35.222Z,0.00
2019-04-22T00:26:37.449Z,0.00
2019-04-22T00:28:12.291Z,0.00
2019-04-22T00:29:03.883Z,0.00
2019-04-22T00:29:56.753Z,0.00
2019-04-22T00:30:40.633Z,0.00
2019-04-22T00:31:38.548Z,0.00
2019-04-22T00:32:57.644Z,0.00
2019-04-22T00:33:51.770Z,0.00
2019-04-22T00:34:34.142Z,0.00
2019-04-22T00:35:29.348Z,0.00
2019-04-22T00:36:40.181Z,0.00
2019-04-22T00:37:56.739Z,0.00
2019-04-22T00:38:58.452Z,0.00
2019-04-22T00:39:35.846Z,0.00
2019-04-22T00:41:35.918Z,0.00
2019-04-22T00:43:05.095Z,0.00
2019-04-22T00:43:58.072Z,0.00
2019-04-22T00:44:38.592Z,0.00
2019-04-22T00:45:39.947Z,0.00
2019-04-22T00:46:38.089Z,0.00
2019-04-22T00:47:50.650Z,0.00
2019-04-22T00:49:46.987Z,0.00
2019-04-22T00:50:07.873Z,0.00
2019-04-22T00:50:43.659Z,0.00
2019-04-22T00:51:44.869Z,0.00
2019-04-22T00:53:04.381Z,0.00
2019-04-22T00:53:56.126Z,0.00
2019-04-22T00:54:35.759Z,0.00
2019-04-22T00:55:38.089Z,0.00
2019-04-22T00:56:32.818Z,0.00
2019-04-22T00:57:54.214Z,0.00
2019-04-22T00:58:50.255Z,0.00
2019-04-22T00:59:40.362Z,0.00
2019-04-22T01:00:37.573Z,0.00
2019-04-22T01:01:36.906Z,0.00
2019-04-22T01:03:03.094Z,0.00
2019-04-22T01:04:04.352Z,0.00
2019-04-22T01:04:40.911Z,0.00
2019-04-22T01:05:37.106Z,0.00
2019-04-22T01:06:35.807Z,0.00
2019-04-22T01:07:57.073Z,0.00
2019-04-22T01:09:00.423Z,0.00
2019-04-22T01:09:40.101Z,0.00
2019-04-22T01:10:39.093Z,0.00
2019-04-22T01:11:33.903Z,0.00
2019-04-22T01:12:49.914Z,0.00
2019-04-22T01:13:55.509Z,0.00
2019-04-22T01:14:34.264Z,0.00
2019-04-22T01:15:45.302Z,0.00
2019-04-22T01:16:35.695Z,0.00
2019-04-22T01:17:57.282Z,0.00
2019-04-22T01:18:55.906Z,0.00
2019-04-22T01:19:39.301Z,0.00
2019-04-22T01:21:00.947Z,0.00
2019-04-22T01:21:40.541Z,0.00
2019-04-22T01:23:55.147Z,0.00
2019-04-22T01:24:32.364Z,0.00
2019-04-22T01:25:31.360Z,0.00
2019-04-22T01:26:28.956Z,0.00
2019-04-22T01:27:50.281Z,0.00
2019-04-22T01:28:46.173Z,0.00
2019-04-22T01:29:22.825Z,0.00
2019-04-22T01:30:24.159Z,0.00
2019-04-22T01:31:17.964Z,0.00
2019-04-22T01:32:38.465Z,0.00
2019-04-22T01:33:40.205Z,0.00
2019-04-22T01:34:32.151Z,0.00
2019-04-22T01:35:20.789Z,0.00
2019-04-22T01:36:33.525Z,0.00
2019-04-22T01:37:49.552Z,0.00
2019-04-22T01:38:58.155Z,0.00
2019-04-22T01:39:37.680Z,0.00
2019-04-22T01:40:38.744Z,0.00
2019-04-22T01:41:42.101Z,0.00
2019-04-22T01:43:01.868Z,0.00
2019-04-22T01:44:10.996Z,0.00
2019-04-22T01:44:40.817Z,0.00
2019-04-22T01:45:39.267Z,0.00
2019-04-22T01:46:36.902Z,0.00
2019-04-22T01:48:00.502Z,0.00
2019-04-22T01:49:04.384Z,0.00
2019-04-22T01:50:41.007Z,0.00
2019-04-22T01:51:45.504Z,0.00
2019-04-22T01:53:10.428Z,0.00
2019-04-22T01:54:05.618Z,0.00
2019-04-22T01:54:43.399Z,0.00
2019-04-22T01:55:38.618Z,0.00
2019-04-22T01:56:40.885Z,0.00
2019-04-22T01:57:53.753Z,0.00
2019-04-22T01:58:49.594Z,0.00
2019-04-22T01:59:31.783Z,0.00
2019-04-22T02:00:39.667Z,0.00
2019-04-22T02:01:46.426Z,0.00
2019-04-22T02:03:07.128Z,0.00
2019-04-22T02:04:01.297Z,0.00
2019-04-22T02:04:53.651Z,0.00
2019-04-22T02:05:40.758Z,0.00
2019-04-22T02:06:44.622Z,0.00
2019-04-22T02:08:09.619Z,0.00
2019-04-22T02:09:09.543Z,0.00
2019-04-22T02:09:49.519Z,0.00
2019-04-22T02:10:39.158Z,0.00
2019-04-22T02:11:45.498Z,0.00
2019-04-22T02:13:00.178Z,0.00
2019-04-22T02:14:39.558Z,0.00
2019-04-22T02:15:38.044Z,0.00
2019-04-22T02:16:48.176Z,0.00
2019-04-22T02:18:04.365Z,0.00
2019-04-22T02:19:07.331Z,0.00
2019-04-22T02:19:37.347Z,0.00
2019-04-22T02:20:40.658Z,0.00
2019-04-22T02:21:38.542Z,0.00
2019-04-22T02:23:15.954Z,0.00
2019-04-22T02:24:04.681Z,0.00
2019-04-22T02:24:54.264Z,0.00
2019-04-22T02:25:44.245Z,0.00
2019-04-22T02:28:05.165Z,0.00
2019-04-22T02:29:00.080Z,0.00
2019-04-22T02:29:44.193Z,0.00
2019-04-22T02:30:56.647Z,0.00
2019-04-22T02:31:48.925Z,0.00
2019-04-22T02:33:34.609Z,0.00
2019-04-22T02:34:13.715Z,0.00
2019-04-22T02:34:45.964Z,0.00
2019-04-22T02:36:01.912Z,0.00
2019-04-22T02:38:10.391Z,0.00
2019-04-22T02:39:07.509Z,0.00
2019-04-22T02:39:42.416Z,0.00
2019-04-22T02:40:58.771Z,0.00
2019-04-22T02:41:41.495Z,0.00
2019-04-22T02:43:12.771Z,0.00
2019-04-22T02:44:08.381Z,0.00
2019-04-22T02:44:42.114Z,0.00
2019-04-22T02:45:56.838Z,0.00
2019-04-22T02:46:53.401Z,0.00
2019-04-22T02:48:16.304Z,0.00
2019-04-22T02:49:11.702Z,0.00
2019-04-22T02:50:45.405Z,0.00
2019-04-22T02:51:52.567Z,0.00
2019-04-22T02:53:13.848Z,0.00
2019-04-22T02:54:52.656Z,0.00
2019-04-22T02:55:48.966Z,0.00
2019-04-22T02:56:56.010Z,0.00
2019-04-22T02:58:05.950Z,0.00
2019-04-22T02:59:09.678Z,0.00
2019-04-22T02:59:54.634Z,0.00
2019-04-22T03:00:53.844Z,0.00
2019-04-22T03:01:44.905Z,0.00
2019-04-22T03:03:27.584Z,0.00
2019-04-22T03:04:17.089Z,0.00
2019-04-22T03:05:05.418Z,0.00
2019-04-22T03:06:56.154Z,0.00
2019-04-22T03:08:14.871Z,0.00
2019-04-22T03:10:03.411Z,0.00
2019-04-22T03:13:09.405Z,0.00
2019-04-22T03:14:08.679Z,0.00
2019-04-22T03:15:50.904Z,0.00
2019-04-22T03:20:42.834Z,0.00
2019-04-22T03:20:50.136Z,0.00
2019-04-22T03:23:16.887Z,0.00
2019-04-22T03:24:18.035Z,0.00
2019-04-22T03:25:10.755Z,0.00
2019-04-22T03:26:01.209Z,0.00
2019-04-22T03:27:58.358Z,0.00
2019-04-22T03:29:04.905Z,0.00
2019-04-22T03:29:58.343Z,0.00
2019-04-22T03:30:56.377Z,4.00
2019-04-22T03:35:25.289Z,0.00
2019-04-22T03:38:37.423Z,0.00
2019-04-22T03:39:29.042Z,4.00
2019-04-22T03:39:55.707Z,4.00
2019-04-22T03:41:57.315Z,4.00
2019-04-22T03:44:19.042Z,8.00
2019-04-22T03:45:51.600Z,8.00
2019-04-22T03:46:53.409Z,8.00
2019-04-22T03:48:07.742Z,12.00
2019-04-22T03:49:25.204Z,12.00
2019-04-22T03:49:58.426Z,12.00
2019-04-22T03:50:42.933Z,12.00
2019-04-22T03:52:03.026Z,16.00
2019-04-22T03:53:09.749Z,16.00
2019-04-22T03:54:25.900Z,16.00
2019-04-22T03:55:05.499Z,16.00
2019-04-22T03:55:43.358Z,20.00
2019-04-22T03:58:11.073Z,24.00
2019-04-22T03:59:22.429Z,24.00
2019-04-22T04:00:47.614Z,28.00
2019-04-22T04:02:10.669Z,32.00
2019-04-22T04:04:30.425Z,36.00
2019-04-22T04:04:43.619Z,36.00
2019-04-22T04:05:52.556Z,40.00
2019-04-22T04:06:59.229Z,40.00
2019-04-22T04:09:14.362Z,48.00
2019-04-22T04:09:53.575Z,52.00
2019-04-22T04:14:53.680Z,68.00
2019-04-22T04:15:55.371Z,76.00
2019-04-22T04:17:06.233Z,80.00
2019-04-22T04:18:04.998Z,84.00
2019-04-22T04:19:16.633Z,96.00
2019-04-22T04:21:12.626Z,104.00
2019-04-22T04:21:48.418Z,116.00
2019-04-22T04:24:29.255Z,140.00
2019-04-22T04:25:10.024Z,148.00
2019-04-22T04:27:15.282Z,164.00
2019-04-22T04:28:29.466Z,184.00
2019-04-22T04:29:27.835Z,188.00
2019-04-22T04:30:05.525Z,200.00
2019-04-22T04:31:58.654Z,216.00
2019-04-22T04:33:15.753Z,232.00
2019-04-22T04:34:21.870Z,240.00
2019-04-22T04:35:03.113Z,240.00
2019-04-22T04:36:03.401Z,248.00
2019-04-22T04:36:55.285Z,272.00
2019-04-22T04:38:23.839Z,304.00
2019-04-22T04:39:05.107Z,324.00
2019-04-22T04:39:53.308Z,336.00
2019-04-22T04:41:06.298Z,344.00
2019-04-22T04:41:57.475Z,364.00
2019-04-22T04:43:07.348Z,392.00
2019-04-22T04:45:11.072Z,432.00
2019-04-22T04:49:48.414Z,452.00
2019-04-22T04:51:00.017Z,456.00
2019-04-22T04:51:53.626Z,464.00
2019-04-22T04:55:10.049Z,516.00
2019-04-22T04:55:53.149Z,540.00
2019-04-22T04:57:07.229Z,552.00
2019-04-22T04:58:25.031Z,568.00
2019-04-22T05:00:26.795Z,584.00
2019-04-22T05:01:55.907Z,628.00
2019-04-22T05:03:13.613Z,648.00
2019-04-22T05:05:52.234Z,664.00
2019-04-22T05:08:12.798Z,660.00
2019-04-22T05:09:14.683Z,660.00
2019-04-22T05:09:44.838Z,676.00
2019-04-22T05:13:28.311Z,672.00
2019-04-22T05:14:09.406Z,676.00
2019-04-22T05:14:46.797Z,692.00
2019-04-22T05:16:03.256Z,696.00
2019-04-22T05:16:46.381Z,708.00
2019-04-22T05:18:23.957Z,708.00
2019-04-22T05:19:11.187Z,756.00
2019-04-22T05:19:37.710Z,740.00
2019-04-22T05:21:11.139Z,740.00
2019-04-22T05:21:50.617Z,752.00
2019-04-22T05:23:05.789Z,768.00
2019-04-22T05:24:15.181Z,776.00
2019-04-22T05:24:42.594Z,788.00
2019-04-22T05:25:40.354Z,800.00
2019-04-22T05:28:06.835Z,804.00
2019-04-22T05:29:06.587Z,828.00
2019-04-22T05:30:04.360Z,824.00
2019-04-22T05:30:40.789Z,820.00
2019-04-22T05:31:46.010Z,820.00
2019-04-22T05:33:02.884Z,824.00
2019-04-22T05:34:08.521Z,792.00
2019-04-22T05:34:48.618Z,792.00
2019-04-22T05:35:51.715Z,792.00
2019-04-22T05:36:55.400Z,800.00
2019-04-22T05:38:09.756Z,864.00
2019-04-22T05:39:06.105Z,868.00
2019-04-22T05:39:45.475Z,888.00
2019-04-22T05:40:37.337Z,876.00
2019-04-22T05:41:43.399Z,940.00
2019-04-22T05:43:01.851Z,928.00
2019-04-22T05:44:04.998Z,884.00
2019-04-22T05:44:42.703Z,920.00
2019-04-22T05:45:43.179Z,960.00
2019-04-22T05:46:42.193Z,956.00
2019-04-22T05:48:02.886Z,940.00
2019-04-22T05:49:09.861Z,944.00
2019-04-22T05:49:45.866Z,908.00
2019-04-22T05:50:45.096Z,864.00
2019-04-22T05:51:41.765Z,892.00
2019-04-22T05:53:01.756Z,828.00
2019-04-22T05:54:09.098Z,804.00
2019-04-22T05:54:38.659Z,784.00
2019-04-22T05:56:40.874Z,728.00
2019-04-22T05:58:02.856Z,748.00
2019-04-22T05:59:04.613Z,712.00
2019-04-22T05:59:45.733Z,768.00
2019-04-22T06:01:21.387Z,708.00
2019-04-22T06:01:52.012Z,736.00
2019-04-22T06:03:07.228Z,728.00
2019-04-22T06:04:05.447Z,692.00
2019-04-22T06:04:44.909Z,724.00
2019-04-22T06:05:41.659Z,768.00
2019-04-22T06:06:39.993Z,744.00
2019-04-22T06:08:06.199Z,724.00
2019-04-22T06:09:05.180Z,764.00
2019-04-22T06:09:38.954Z,780.00
2019-04-22T06:10:48.572Z,768.00
2019-04-22T06:11:54.489Z,736.00
2019-04-22T06:13:00.924Z,708.00
2019-04-22T06:14:02.307Z,700.00
2019-04-22T06:14:39.800Z,680.00
2019-04-22T06:15:40.341Z,676.00
2019-04-22T06:16:44.431Z,656.00
2019-04-22T06:18:09.496Z,636.00
2019-04-22T06:19:08.743Z,632.00
2019-04-22T06:19:44.665Z,612.00
2019-04-22T06:20:45.456Z,568.00
2019-04-22T06:21:44.790Z,548.00
2019-04-22T06:24:10.604Z,496.00
2019-04-22T06:24:42.382Z,464.00
2019-04-22T06:26:07.864Z,444.00
2019-04-22T06:26:51.908Z,424.00
2019-04-22T06:28:15.814Z,396.00
2019-04-22T06:29:13.636Z,372.00
2019-04-22T06:29:41.363Z,352.00
2019-04-22T06:30:53.486Z,344.00
2019-04-22T06:32:12.798Z,336.00
2019-04-22T06:33:11.242Z,336.00
2019-04-22T06:34:10.614Z,336.00
2019-04-22T06:34:45.174Z,340.00
2019-04-22T06:36:03.421Z,336.00
2019-04-22T06:38:30.466Z,340.00
2019-04-22T06:39:10.481Z,344.00
2019-04-22T06:39:46.688Z,344.00
2019-04-22T06:40:46.808Z,344.00
2019-04-22T06:41:47.905Z,344.00
2019-04-22T06:43:13.719Z,356.00
2019-04-22T06:44:14.398Z,356.00
2019-04-22T06:44:48.738Z,360.00
2019-04-22T06:45:39.938Z,368.00
2019-04-22T06:46:47.455Z,384.00
2019-04-22T06:48:06.761Z,396.00
2019-04-22T06:49:09.337Z,408.00
2019-04-22T06:49:41.478Z,424.00
2019-04-22T06:51:46.798Z,452.00
2019-04-22T06:53:04.053Z,476.00
2019-04-22T06:54:12.152Z,488.00
2019-04-22T06:54:50.476Z,500.00
2019-04-22T06:55:48.135Z,520.00
2019-04-22T06:56:42.743Z,540.00
2019-04-22T06:58:04.531Z,560.00
2019-04-22T06:59:06.617Z,572.00
2019-04-22T06:59:45.760Z,580.00
2019-04-22T07:01:50.316Z,572.00
2019-04-22T07:04:19.837Z,568.00
2019-04-22T07:04:43.013Z,564.00
2019-04-22T07:05:47.469Z,604.00
2019-04-22T07:06:48.730Z,592.00
2019-04-22T07:08:16.064Z,552.00
2019-04-22T07:09:20.791Z,532.00
2019-04-22T07:09:46.535Z,564.00
2019-04-22T07:10:47.616Z,596.00
2019-04-22T07:11:42.959Z,636.00
2019-04-22T07:13:12.514Z,692.00
2019-04-22T07:14:07.075Z,752.00
2019-04-22T07:14:48.654Z,804.00
2019-04-22T07:16:44.189Z,972.00
2019-04-22T07:18:11.589Z,1052.00
2019-04-22T07:19:12.215Z,1152.00
2019-04-22T07:19:45.275Z,1268.00
2019-04-22T07:21:44.045Z,1392.00
2019-04-22T07:23:08.527Z,1484.00
2019-04-22T07:24:20.125Z,1480.00
2019-04-22T07:24:49.265Z,1512.00
2019-04-22T07:26:01.069Z,1564.00
2019-04-22T07:26:44.915Z,1528.00
2019-04-22T07:28:05.423Z,1512.00
2019-04-22T07:29:07.571Z,1596.00
2019-04-22T07:29:53.844Z,1536.00
2019-04-22T07:30:46.777Z,1548.00
2019-04-22T07:31:50.898Z,1568.00
2019-04-22T07:34:16.581Z,1616.00
2019-04-22T07:34:50.442Z,1600.00
2019-04-22T07:36:00.553Z,1632.00
2019-04-22T07:36:53.575Z,1616.00
2019-04-22T07:38:10.781Z,1640.00
2019-04-22T07:39:05.781Z,1604.00
2019-04-22T07:39:45.591Z,1600.00
2019-04-22T07:40:50.393Z,1596.00
2019-04-22T07:41:48.992Z,1652.00
2019-04-22T07:43:18.789Z,1656.00
2019-04-22T07:46:50.025Z,1588.00
2019-04-22T07:48:21.976Z,1684.00
2019-04-22T07:49:53.126Z,1608.00
2019-04-22T07:51:05.478Z,1672.00
2019-04-22T07:51:44.646Z,1680.00
2019-04-22T07:53:05.446Z,1616.00
2019-04-22T07:54:06.501Z,1632.00
2019-04-22T07:54:50.907Z,1596.00
2019-04-22T07:55:48.461Z,1656.00
2019-04-22T07:56:47.001Z,1720.00
2019-04-22T07:58:16.784Z,1656.00
2019-04-22T07:59:11.480Z,1660.00
2019-04-22T07:59:49.087Z,1672.00
2019-04-22T08:00:44.894Z,1700.00
2019-04-22T08:01:41.840Z,1700.00
2019-04-22T08:03:14.662Z,1716.00
2019-04-22T08:04:16.202Z,1720.00
2019-04-22T08:05:03.738Z,1752.00
2019-04-22T08:06:52.616Z,1808.00
2019-04-22T08:08:14.579Z,1780.00
2019-04-22T08:09:15.264Z,1796.00
2019-04-22T08:09:57.582Z,1860.00
2019-04-22T08:10:52.277Z,1768.00
2019-04-22T08:11:50.818Z,1836.00
2019-04-22T08:13:05.699Z,1828.00
2019-04-22T08:14:11.857Z,1736.00
2019-04-22T08:14:45.488Z,1744.00
2019-04-22T08:15:47.060Z,1736.00
2019-04-22T08:16:53.067Z,1700.00
2019-04-22T08:18:16.352Z,1720.00
2019-04-22T08:19:08.853Z,1884.00
2019-04-22T08:19:50.595Z,1768.00
2019-04-22T08:20:47.217Z,1580.00
2019-04-22T08:21:47.375Z,1952.00
2019-04-22T08:23:12.220Z,1856.00
2019-04-22T08:24:06.363Z,1744.00
2019-04-22T08:24:51.267Z,1792.00
2019-04-22T08:26:46.478Z,1936.00
2019-04-22T08:28:11.814Z,2244.00
2019-04-22T08:29:14.843Z,2108.00
2019-04-22T08:29:52.239Z,1956.00
2019-04-22T08:30:51.951Z,1860.00
2019-04-22T08:31:49.289Z,2284.00
2019-04-22T08:33:13.781Z,1872.00
2019-04-22T08:34:42.772Z,2340.00
2019-04-22T08:36:00.499Z,2248.00
2019-04-22T08:38:06.655Z,2276.00
2019-04-22T08:40:07.636Z,2768.00
2019-04-22T08:40:47.257Z,2900.00
2019-04-22T08:41:41.025Z,2552.00
2019-04-22T08:43:15.588Z,2624.00
2019-04-22T08:44:28.013Z,2356.00
2019-04-22T08:48:12.973Z,3308.00
2019-04-22T08:49:05.667Z,2608.00
2019-04-22T08:49:57.146Z,3412.00
2019-04-22T08:50:44.233Z,2804.00
2019-04-22T08:51:42.867Z,3744.00
2019-04-22T08:53:12.498Z,3240.00
2019-04-22T08:54:55.440Z,3992.00
2019-04-22T08:55:56.051Z,3104.00
2019-04-22T08:56:49.390Z,3764.00
2019-04-22T08:59:12.451Z,3452.00
2019-04-22T08:59:48.651Z,2768.00
2019-04-22T09:00:51.839Z,3808.00
2019-04-22T09:01:45.343Z,3248.00
2019-04-22T09:04:10.403Z,3464.00
2019-04-22T09:04:49.383Z,2488.00
2019-04-22T09:05:59.660Z,3308.00
2019-04-22T09:07:07.202Z,3380.00
2019-04-22T09:08:15.711Z,2736.00
2019-04-22T09:09:27.197Z,4972.00
2019-04-22T09:10:02.040Z,2936.00
2019-04-22T09:10:50.335Z,3088.00
2019-04-22T09:13:10.153Z,3352.00
2019-04-22T09:14:11.240Z,3404.00
2019-04-22T09:14:47.624Z,3236.00
2019-04-22T09:16:08.776Z,2900.00
2019-04-22T09:17:07.469Z,4212.00
2019-04-22T09:19:22.433Z,3416.00
2019-04-22T09:19:47.762Z,3072.00
2019-04-22T09:20:48.597Z,2460.00
2019-04-22T09:21:54.565Z,3644.00
2019-04-22T09:23:14.814Z,2688.00
2019-04-22T09:24:10.324Z,3288.00
2019-04-22T09:24:46.935Z,3804.00
2019-04-22T09:25:51.077Z,3340.00
2019-04-22T09:26:47.451Z,4400.00
2019-04-22T09:28:10.436Z,3664.00
2019-04-22T09:29:17.993Z,3616.00
2019-04-22T09:30:55.607Z,5196.00
2019-04-22T09:31:53.892Z,3700.00
2019-04-22T09:33:14.174Z,4048.00
2019-04-22T09:34:06.922Z,6284.00
2019-04-22T09:34:50.327Z,5832.00
2019-04-22T09:35:52.402Z,5768.00
2019-04-22T09:36:53.269Z,8328.00
2019-04-22T09:39:10.657Z,4864.00
2019-04-22T09:39:51.763Z,5856.00
2019-04-22T09:40:47.048Z,6400.00
2019-04-22T09:43:11.456Z,7740.00
2019-04-22T09:44:07.880Z,6780.00
2019-04-22T09:44:47.930Z,3700.00
2019-04-22T09:45:48.014Z,2976.00
2019-04-22T09:46:49.944Z,4916.00
2019-04-22T09:49:11.983Z,9332.00
2019-04-22T09:49:55.424Z,6068.00
2019-04-22T09:50:47.713Z,10228.00
2019-04-22T09:51:52.111Z,6672.00
2019-04-22T09:53:13.401Z,4640.00
2019-04-22T09:54:14.934Z,11696.00
2019-04-22T09:54:57.905Z,13920.00
2019-04-22T09:55:50.023Z,12772.00
2019-04-22T09:56:49.285Z,5620.00
2019-04-22T09:58:14.834Z,12208.00
2019-04-22T09:59:07.592Z,12636.00
2019-04-22T09:59:51.194Z,4868.00
2019-04-22T10:00:52.541Z,12396.00
2019-04-22T10:02:02.370Z,12464.00
2019-04-22T10:03:16.586Z,12500.00
2019-04-22T10:04:06.883Z,10108.00
2019-04-22T10:04:57.096Z,13792.00
2019-04-22T10:06:06.069Z,13984.00
2019-04-22T10:07:03.841Z,14208.00
2019-04-22T10:08:22.261Z,15104.00
2019-04-22T10:10:54.799Z,16800.00
2019-04-22T10:11:50.884Z,7684.00
2019-04-22T10:13:12.306Z,17536.00
2019-04-22T10:14:13.665Z,18080.00
2019-04-22T10:14:51.114Z,17984.00
2019-04-22T10:15:54.823Z,18304.00
2019-04-22T10:16:50.817Z,18560.00
2019-04-22T10:18:12.866Z,18816.00
2019-04-22T10:19:11.047Z,18944.00
2019-04-22T10:19:49.351Z,19008.00
2019-04-22T10:20:54.405Z,18912.00
2019-04-22T10:21:51.101Z,18144.00
2019-04-22T10:23:15.310Z,17600.00
2019-04-22T10:24:09.061Z,18304.00
2019-04-22T10:24:53.592Z,18528.00
2019-04-22T10:25:54.156Z,19008.00
2019-04-22T10:26:55.220Z,18880.00
2019-04-22T10:28:14.760Z,19168.00
2019-04-22T10:29:11.047Z,19328.00
2019-04-22T10:29:54.199Z,19648.00
2019-04-22T10:31:52.678Z,18240.00
2019-04-22T10:33:08.835Z,18688.00
2019-04-22T10:34:02.546Z,21408.00
2019-04-22T10:34:34.704Z,24512.00
2019-04-22T10:35:27.211Z,25440.00
2019-04-22T10:36:25.594Z,25504.00
2019-04-22T10:37:46.442Z,26112.00
2019-04-22T10:38:46.553Z,25120.00
2019-04-22T10:39:37.913Z,24864.00
2019-04-22T10:40:25.746Z,25952.00
2019-04-22T10:41:26.317Z,26976.00
2019-04-22T10:42:47.326Z,28096.00
2019-04-22T10:43:47.624Z,27616.00
2019-04-22T10:44:26.851Z,27200.00
2019-04-22T10:45:26.060Z,27296.00
2019-04-22T10:46:26.359Z,27936.00
2019-04-22T10:47:47.899Z,28160.00
2019-04-22T10:48:48.259Z,29248.00
2019-04-22T10:49:26.563Z,31232.00
2019-04-22T10:50:25.843Z,30752.00
2019-04-22T10:51:26.544Z,30304.00
2019-04-22T10:52:47.718Z,30272.00
2019-04-22T10:53:47.175Z,29632.00
2019-04-22T10:54:27.239Z,29824.00
2019-04-22T10:55:27.177Z,29568.00
2019-04-22T10:56:27.122Z,30624.00
2019-04-22T10:57:48.509Z,29696.00
2019-04-22T10:58:48.815Z,29888.00
2019-04-22T10:59:26.896Z,33024.00
2019-04-22T11:00:27.249Z,35136.00
2019-04-22T11:01:27.513Z,34368.00
2019-04-22T11:02:47.832Z,34048.00
2019-04-22T11:03:48.956Z,35904.00
2019-04-22T11:04:26.347Z,35680.00
2019-04-22T11:05:26.372Z,34400.00
2019-04-22T11:06:27.481Z,32352.00
2019-04-22T11:07:53.988Z,32928.00
2019-04-22T11:08:53.992Z,32640.00
2019-04-22T11:09:27.024Z,32384.00
2019-04-22T11:10:41.287Z,34592.00
2019-04-22T11:11:41.523Z,35808.00
2019-04-22T11:12:49.109Z,35872.00
2019-04-22T11:13:47.686Z,37152.00
2019-04-22T11:14:26.739Z,36960.00
2019-04-22T11:15:26.734Z,37184.00
2019-04-22T11:16:27.866Z,38624.00
2019-04-22T11:17:49.368Z,41312.00
2019-04-22T11:18:47.853Z,41472.00
2019-04-22T11:19:27.730Z,42336.00
2019-04-22T11:20:26.889Z,41760.00
2019-04-22T11:21:27.443Z,42336.00
2019-04-22T11:22:48.917Z,43520.00
2019-04-22T11:23:48.030Z,46144.00
2019-04-22T11:24:28.448Z,45504.00
2019-04-22T11:25:27.747Z,42912.00
2019-04-22T11:26:28.235Z,41632.00
2019-04-22T11:27:49.298Z,40288.00
2019-04-22T11:28:49.332Z,41888.00
2019-04-22T11:29:27.844Z,44576.00
2019-04-22T11:30:28.194Z,49088.00
2019-04-22T11:31:28.245Z,50112.00
2019-04-22T11:32:48.671Z,46752.00
2019-04-22T11:33:48.535Z,45184.00
2019-04-22T11:34:28.980Z,46720.00
2019-04-22T11:35:27.981Z,46816.00
2019-04-22T11:36:30.452Z,42752.00
2019-04-22T11:37:48.645Z,35264.00
2019-04-22T11:38:54.061Z,16032.00
2019-04-22T11:39:30.802Z,1940.00
2019-04-22T11:40:36.399Z,1400.00
2019-04-22T11:41:27.780Z,1224.00
2019-04-22T11:42:50.182Z,1160.00
2019-04-22T11:43:49.416Z,1120.00
2019-04-22T11:44:27.781Z,1096.00
2019-04-22T11:45:29.143Z,1092.00
2019-04-22T11:46:29.362Z,1084.00
2019-04-22T11:47:48.902Z,1064.00
2019-04-22T11:48:49.899Z,1040.00
2019-04-22T11:49:27.947Z,1020.00
2019-04-22T11:50:28.079Z,984.00
2019-04-22T11:51:27.978Z,976.00
2019-04-22T11:52:49.056Z,960.00
2019-04-22T11:53:49.206Z,968.00
2019-04-22T11:54:28.557Z,992.00
2019-04-22T11:55:28.745Z,976.00
2019-04-22T11:56:29.219Z,940.00
2019-04-22T11:57:49.854Z,928.00
2019-04-22T11:58:50.703Z,904.00
2019-04-22T11:59:29.037Z,884.00
2019-04-22T12:00:28.306Z,880.00
2019-04-22T12:01:28.749Z,872.00
2019-04-22T12:02:49.415Z,864.00
2019-04-22T12:03:49.627Z,844.00
2019-04-22T12:04:29.886Z,844.00
2019-04-22T12:05:29.892Z,832.00
2019-04-22T12:06:28.473Z,828.00
2019-04-22T12:07:50.875Z,816.00
2019-04-22T12:08:50.008Z,796.00
2019-04-22T12:09:29.807Z,796.00
2019-04-22T12:10:35.670Z,772.00
2019-04-22T12:11:28.622Z,764.00
2019-04-22T12:12:51.243Z,764.00
2019-04-22T12:13:51.811Z,740.00
2019-04-22T12:14:29.896Z,736.00
2019-04-22T12:15:28.901Z,720.00
2019-04-22T12:16:29.641Z,712.00
2019-04-22T12:17:50.941Z,712.00
2019-04-22T12:18:51.096Z,704.00
2019-04-22T12:19:29.436Z,696.00
2019-04-22T12:20:29.402Z,688.00
2019-04-22T12:21:28.988Z,684.00
2019-04-22T12:22:51.287Z,700.00
2019-04-22T12:23:50.917Z,680.00
2019-04-22T12:24:30.240Z,672.00
2019-04-22T12:25:39.715Z,664.00
2019-04-22T12:26:30.491Z,668.00
2019-04-22T12:27:50.783Z,668.00
2019-04-22T12:28:51.011Z,660.00
2019-04-22T12:29:29.174Z,668.00
2019-04-22T12:30:29.834Z,652.00
2019-04-22T12:31:29.402Z,660.00
2019-04-22T12:32:50.527Z,656.00
2019-04-22T12:33:50.292Z,660.00
2019-04-22T12:34:29.428Z,660.00
2019-04-22T12:35:30.369Z,652.00
2019-04-22T12:36:30.599Z,640.00
2019-04-22T12:37:55.662Z,648.00
2019-04-22T12:38:51.466Z,660.00
2019-04-22T12:39:29.578Z,648.00
2019-04-22T12:40:38.254Z,652.00
2019-04-22T12:41:29.494Z,656.00
2019-04-22T12:42:51.358Z,636.00
2019-04-22T12:43:51.393Z,644.00
2019-04-22T12:44:30.496Z,644.00
2019-04-22T12:45:30.073Z,632.00
2019-04-22T12:46:30.165Z,624.00
2019-04-22T12:47:50.690Z,612.00
2019-04-22T12:48:51.948Z,620.00
2019-04-22T12:49:29.955Z,616.00
2019-04-22T12:50:33.825Z,612.00
2019-04-22T12:51:31.168Z,620.00
2019-04-22T12:52:55.359Z,624.00
2019-04-22T12:53:50.938Z,612.00
2019-04-22T12:54:31.029Z,612.00
2019-04-22T12:55:30.278Z,600.00
2019-04-22T12:56:30.019Z,612.00
2019-04-22T12:57:53.914Z,600.00
2019-04-22T12:58:51.741Z,596.00
2019-04-22T12:59:30.009Z,596.00
2019-04-22T13:00:30.262Z,592.00
2019-04-22T13:01:30.857Z,588.00
2019-04-22T13:02:51.403Z,592.00
2019-04-22T13:03:52.085Z,584.00
2019-04-22T13:04:30.214Z,576.00
2019-04-22T13:05:31.382Z,580.00
2019-04-22T13:06:30.253Z,568.00
2019-04-22T13:07:51.647Z,564.00
2019-04-22T13:08:52.335Z,556.00
2019-04-22T13:09:31.468Z,568.00
2019-04-22T13:10:43.724Z,564.00
2019-04-22T13:11:34.194Z,540.00
2019-04-22T13:12:51.395Z,556.00
2019-04-22T13:13:51.461Z,560.00
2019-04-22T13:14:30.614Z,564.00
2019-04-22T13:15:30.818Z,548.00
2019-04-22T13:16:31.282Z,528.00
2019-04-22T13:18:03.177Z,536.00
2019-04-22T13:18:56.578Z,524.00
2019-04-22T13:19:31.833Z,528.00
2019-04-22T13:20:30.598Z,548.00
2019-04-22T13:21:31.126Z,536.00
2019-04-22T13:22:52.647Z,532.00
2019-04-22T13:23:52.924Z,532.00
2019-04-22T13:24:31.930Z,528.00
2019-04-22T13:25:32.328Z,536.00
2019-04-22T13:26:31.953Z,528.00
2019-04-22T13:27:53.206Z,532.00
2019-04-22T13:28:51.898Z,512.00
2019-04-22T13:29:31.109Z,512.00
2019-04-22T13:30:32.461Z,504.00
2019-04-22T13:31:31.016Z,504.00
2019-04-22T13:32:52.675Z,508.00
2019-04-22T13:33:55.182Z,508.00
2019-04-22T13:34:39.718Z,508.00
2019-04-22T13:35:31.915Z,496.00
2019-04-22T13:36:31.776Z,516.00
2019-04-22T13:37:53.045Z,504.00
2019-04-22T13:38:53.119Z,512.00
2019-04-22T13:39:31.294Z,492.00
2019-04-22T13:40:31.145Z,492.00
2019-04-22T13:41:37.672Z,504.00
2019-04-22T13:42:53.523Z,476.00
2019-04-22T13:43:53.762Z,488.00
2019-04-22T13:44:31.482Z,484.00
2019-04-22T13:45:31.791Z,504.00
2019-04-22T13:46:33.582Z,476.00
2019-04-22T13:48:11.076Z,472.00
2019-04-22T13:49:14.734Z,468.00
2019-04-22T13:52:08.267Z,472.00
2019-04-22T13:54:54.426Z,452.00
2019-04-22T13:56:10.434Z,468.00
2019-04-22T13:58:05.846Z,464.00
2019-04-22T14:00:18.441Z,444.00
2019-04-22T14:01:18.617Z,432.00
2019-04-22T14:02:18.764Z,440.00
2019-04-22T14:03:39.367Z,448.00
2019-04-22T14:04:38.754Z,432.00
2019-04-22T14:05:17.373Z,420.00